Main page
METAR-TAF:

METAR-TAF

Airports :

Riyadh, Saudi Arabia

Riyadh Air Base

latitude: 24-43N, longitude: 046-44E, elevation: 635 m

METAR: missing

Time: 13:01 (10:01 UTC)

Forecast

The report was made 11 hours and 1 minutes ago, at 23:00 UTC
Forecast valid from 22 at 00 UTC to 23 at 06 UTC
Wind 3 kt from variable directions
Visibility 10 km or more
no clouds below 1500 m and no cumulonimbus
Becoming
from 22 at 06 UTC to 22 at 08 UTC
Wind 12 kt from the West/Southwest
Visibility: 6000 m
Clear sky

TAF: OERY 212300Z 2200/2306 VRB03KT CAVOK BECMG 2206/2208 25012KT 6000 SKC

Weather observations and forecasts of more than 4000 airports (METAR and TAF reports).

The available stations are represented by yellow and red dots on the map.

Hover mouse over dot to see the name of the station.

Then click to see weather observations and forecasts.

To change the map : click on the green buttons with a black cross to zoom in, on the green button with a dash to zoom out, or on the green arrows for adjacent maps.


METAR-TAF: